Time;durP1;ratioP1;P1;durP2;ratioP2;P2;SDS_P1;SDS_P2;PMS_P1;PMS_P2;Temp;Humidity;BMP_temperature;BMP_pressure;BME280_temperature;BME280_humidity;BME280_pressure;Samples;Min_cycle;Max_cycle;Signal;HPM_P1;HPM_P2
2022/02/09 00:00:37;;;;;;;6.97;4.37;;;0.80;99.90;;;;;;6251088;23;20172;-80
2022/02/09 00:03:13;;;;;;;5.77;3.70;;;0.70;99.90;;;;;;6250351;23;20145;-80
2022/02/09 00:05:58;;;;;;;5.63;3.80;;;0.70;99.90;;;;;;6225680;23;20133;-80
2022/02/09 00:08:24;;;;;;;5.33;3.97;;;0.80;99.90;;;;;;6250923;23;20590;-80
2022/02/09 00:10:58;;;;;;;7.70;4.20;;;0.80;99.90;;;;;;6250757;23;20168;-80
2022/02/09 00:16:30;;;;;;;7.13;3.97;;;0.80;99.90;;;;;;6258975;23;20136;-80
2022/02/09 00:19:08;;;;;;;5.57;4.17;;;0.80;99.90;;;;;;6253471;23;20131;-80
2022/02/09 00:21:58;;;;;;;7.13;4.50;;;0.70;99.90;;;;;;6252004;23;20165;-81
2022/02/09 01:02:59;;;;;;;6.13;3.13;;;0.40;99.90;;;;;;6258422;23;20262;-83
2022/02/09 01:55:26;;;;;;;12.27;3.60;;;-0.50;99.90;;;;;;6258598;23;20179;-83
2022/02/09 01:57:18;;;;;;;7.80;4.10;;;-0.30;99.90;;;;;;6257470;23;20266;-83
2022/02/09 01:59:48;;;;;;;7.07;3.83;;;-0.50;99.90;;;;;;6256570;23;20140;-82
2022/02/09 02:02:14;;;;;;;5.40;3.93;;;-0.50;99.90;;;;;;6255994;23;20758;-82
2022/02/09 02:04:40;;;;;;;4.17;3.53;;;-0.40;99.90;;;;;;6257701;23;20149;-85
2022/02/09 02:07:15;;;;;;;5.03;3.70;;;-0.40;99.90;;;;;;6256764;23;20173;-82
2022/02/09 02:09:41;;;;;;;6.93;3.70;;;-0.30;99.90;;;;;;6256483;23;20129;-82
2022/02/09 02:12:13;;;;;;;4.50;3.40;;;-0.40;99.90;;;;;;6259516;23;20184;-83
2022/02/09 02:14:52;;;;;;;7.20;3.60;;;-0.50;99.90;;;;;;6257591;23;20189;-83
2022/02/09 02:19:47;;;;;;;5.87;3.73;;;-0.50;99.90;;;;;;6259307;23;20616;-83
2022/02/09 02:35:52;;;;;;;4.63;3.47;;;-0.20;99.90;;;;;;6267211;23;20160;-83
2022/02/09 02:42:09;;;;;;;6.87;3.60;;;-0.20;99.90;;;;;;6257695;23;20175;-83
2022/02/09 02:59:36;;;;;;;5.80;3.20;;;-0.40;99.90;;;;;;6258809;23;20157;-83
2022/02/09 03:08:19;;;;;;;4.50;2.80;;;-0.50;99.90;;;;;;6256108;23;20593;-82
2022/02/09 03:13:10;;;;;;;4.57;3.10;;;0.00;99.90;;;;;;6253818;23;20136;-83
2022/02/09 03:15:43;;;;;;;5.90;3.10;;;-0.40;99.90;;;;;;6260032;23;20129;-82
2022/02/09 03:20:46;;;;;;;3.10;2.80;;;-0.30;99.90;;;;;;6255018;23;20598;-82
2022/02/09 03:57:30;;;;;;;6.20;3.73;;;-0.80;99.90;;;;;;6257912;23;20185;-82
2022/02/09 03:59:57;;;;;;;4.67;3.40;;;-0.90;99.90;;;;;;6259318;23;20141;-83
2022/02/09 04:02:23;;;;;;;6.20;3.60;;;-0.90;99.90;;;;;;6259945;23;20175;-83
2022/02/09 04:04:55;;;;;;;5.67;3.53;;;-0.90;99.90;;;;;;6259605;23;20157;-83
2022/02/09 04:07:20;;;;;;;9.23;3.97;;;-1.00;99.90;;;;;;6260257;23;20165;-83
2022/02/09 04:09:47;;;;;;;7.90;3.43;;;-1.10;99.90;;;;;;6261765;22;20155;-83
2022/02/09 04:18:09;;;;;;;7.43;3.73;;;-1.20;99.90;;;;;;6257972;23;20189;-83
2022/02/09 04:22:33;;;;;;;5.27;3.40;;;-1.10;99.90;;;;;;6254940;23;20161;-83
2022/02/09 04:42:43;;;;;;;7.70;3.07;;;-0.90;99.90;;;;;;6267724;22;20197;-82
2022/02/09 05:05:19;;;;;;;4.70;2.87;;;-1.10;99.90;;;;;;6257927;23;20138;-83
2022/02/09 05:24:19;;;;;;;5.50;3.03;;;-1.00;99.90;;;;;;6258776;23;20167;-82
2022/02/09 05:27:00;;;;;;;5.23;3.30;;;-0.90;99.90;;;;;;6257465;23;20134;-82
2022/02/09 05:29:26;;;;;;;7.57;4.37;;;-1.00;99.90;;;;;;6235539;23;20576;-81
2022/02/09 05:31:53;;;;;;;8.03;4.47;;;-0.60;99.90;;;;;;6231901;23;20225;-81
2022/02/09 05:34:19;;;;;;;6.17;3.40;;;-0.80;99.90;;;;;;6231024;23;20145;-82
2022/02/09 05:36:44;;;;;;;6.23;3.70;;;-0.90;99.90;;;;;;6232362;23;20478;-81
2022/02/09 05:39:11;;;;;;;4.87;3.37;;;-0.90;99.90;;;;;;6233994;23;20169;-83
2022/02/09 05:44:18;;;;;;;5.40;4.10;;;-1.00;99.90;;;;;;6289385;22;20198;-83
2022/02/09 05:49:50;;;;;;;5.73;4.73;;;-1.00;99.90;;;;;;6288104;22;20139;-82
2022/02/09 05:58:06;;;;;;;5.00;3.70;;;-0.20;99.90;;;;;;6287561;22;20577;-83
2022/02/09 06:00:33;;;;;;;5.93;3.37;;;-1.00;99.90;;;;;;6287231;22;20542;-82
2022/02/09 06:03:18;;;;;;;4.53;3.20;;;-0.40;99.90;;;;;;6289097;22;20159;-83
2022/02/09 06:09:08;;;;;;;5.97;3.40;;;-0.70;99.90;;;;;;6294438;22;20187;-82
2022/02/09 06:11:48;;;;;;;4.93;3.33;;;-1.00;99.90;;;;;;6282191;22;20674;-81
2022/02/09 06:20:57;;;;;;;4.87;2.93;;;-1.00;99.90;;;;;;6262789;23;20147;-82
2022/02/09 06:23:43;;;;;;;4.40;2.93;;;-1.00;99.90;;;;;;6261061;23;20223;-82
2022/02/09 06:30:00;;;;;;;5.00;3.13;;;-1.10;99.90;;;;;;6162866;23;20163;-83
2022/02/09 06:32:27;;;;;;;6.73;3.17;;;-1.10;99.90;;;;;;6166934;23;20714;-83
2022/02/09 06:35:05;;;;;;;6.37;3.10;;;-1.20;99.90;;;;;;6165263;23;20158;-85
2022/02/09 06:37:45;;;;;;;10.90;3.87;;;-1.50;99.90;;;;;;6167662;23;20160;-83
2022/02/09 06:40:14;;;;;;;6.17;3.00;;;-1.20;99.90;;;;;;6246245;22;20203;-80
2022/02/09 06:43:05;;;;;;;4.23;2.67;;;-1.60;99.90;;;;;;6281417;22;20150;-80
2022/02/09 06:45:36;;;;;;;3.90;2.97;;;-1.00;99.90;;;;;;6251717;22;20152;-80
2022/02/09 06:48:11;;;;;;;4.93;2.87;;;-1.20;99.90;;;;;;6253765;22;20518;-80
2022/02/09 06:50:41;;;;;;;4.97;3.30;;;-1.40;99.90;;;;;;6280809;22;20164;-80
2022/02/09 06:55:56;;;;;;;5.07;3.43;;;-1.80;99.90;;;;;;6291059;22;20184;-80
2022/02/09 07:01:04;;;;;;;5.33;3.27;;;-0.80;99.90;;;;;;6291777;22;20579;-80
2022/02/09 07:03:48;;;;;;;6.77;3.57;;;-1.40;99.90;;;;;;6253062;22;20616;-80
2022/02/09 07:06:14;;;;;;;5.63;3.10;;;-1.30;99.90;;;;;;6252659;22;20147;-79
2022/02/09 07:08:54;;;;;;;4.57;3.10;;;-1.20;99.90;;;;;;6275592;22;20497;-79
2022/02/09 07:11:23;;;;;;;4.97;3.53;;;-1.30;99.90;;;;;;6276007;22;20155;-79
2022/02/09 07:13:52;;;;;;;5.70;3.40;;;-1.20;99.90;;;;;;6275133;22;20162;-80
2022/02/09 07:17:02;;;;;;;5.67;3.50;;;-0.30;99.90;;;;;;6276730;22;20140;-80
2022/02/09 07:19:38;;;;;;;4.50;3.37;;;-1.20;99.90;;;;;;6074519;23;20498;-79
2022/02/09 07:22:22;;;;;;;3.77;3.27;;;-1.20;99.90;;;;;;6262919;22;20163;-79
2022/02/09 07:24:50;;;;;;;4.03;3.23;;;-0.70;99.90;;;;;;6279484;22;20190;-79
2022/02/09 07:27:53;;;;;;;6.33;3.63;;;-1.10;99.90;;;;;;6278795;22;20199;-79
2022/02/09 07:30:32;;;;;;;7.07;3.40;;;-1.10;99.90;;;;;;6280211;22;20253;-79
2022/02/09 07:33:04;;;;;;;5.73;3.50;;;-1.10;99.90;;;;;;6279343;22;20140;-81
2022/02/09 07:35:31;;;;;;;11.13;4.10;;;-1.20;99.90;;;;;;6279884;22;20186;-79
2022/02/09 07:37:58;;;;;;;7.03;4.00;;;-1.00;99.90;;;;;;6278726;22;20153;-79
2022/02/09 07:40:29;;;;;;;6.60;3.93;;;-0.60;99.90;;;;;;6254751;22;20645;-80
2022/02/09 07:43:00;;;;;;;5.53;4.00;;;-0.90;99.90;;;;;;6249492;23;20168;-79
2022/02/09 07:45:44;;;;;;;5.57;3.73;;;-0.30;99.90;;;;;;6221284;23;20172;-79
2022/02/09 07:50:59;;;;;;;4.73;3.33;;;-0.80;99.90;;;;;;6248471;23;20230;-79
2022/02/09 07:53:35;;;;;;;7.13;3.70;;;-0.90;99.90;;;;;;6219576;23;20222;-79
2022/02/09 07:56:00;;;;;;;7.10;3.87;;;-0.80;99.90;;;;;;6246243;23;20149;-79
2022/02/09 07:59:04;;;;;;;6.27;3.50;;;-0.70;99.90;;;;;;6246806;23;20161;-79
2022/02/09 08:01:30;;;;;;;6.33;3.90;;;-0.80;99.90;;;;;;6095948;23;20159;-78
2022/02/09 08:03:58;;;;;;;7.37;4.23;;;-0.30;99.90;;;;;;6217076;23;20599;-80
2022/02/09 08:06:24;;;;;;;5.53;3.83;;;-0.60;99.90;;;;;;6247736;23;20156;-80
2022/02/09 08:08:57;;;;;;;4.00;3.60;;;-0.80;99.90;;;;;;6248448;23;20718;-79
2022/02/09 08:11:51;;;;;;;7.13;3.70;;;-0.50;99.90;;;;;;6248938;23;20155;-79
2022/02/09 08:33:07;;;;;;;14.90;6.43;;;0.20;99.90;;;;;;6255365;23;20149;-79
2022/02/09 08:35:34;;;;;;;11.17;7.57;;;0.20;99.90;;;;;;6236115;23;20172;-79
2022/02/09 08:38:01;;;;;;;11.90;6.47;;;0.30;99.90;;;;;;6229783;23;20160;-80
2022/02/09 08:40:28;;;;;;;14.90;7.87;;;0.50;99.90;;;;;;6246579;22;20636;-79
2022/02/09 08:42:54;;;;;;;12.37;8.37;;;0.50;99.90;;;;;;6278813;22;20151;-79
2022/02/09 08:45:21;;;;;;;17.70;8.97;;;0.70;99.90;;;;;;6279264;22;20211;-79
2022/02/09 08:47:47;;;;;;;10.87;7.80;;;0.70;99.90;;;;;;6279346;22;20172;-79
2022/02/09 08:50:15;;;;;;;18.37;8.70;;;0.80;99.90;;;;;;6252645;22;20168;-79
2022/02/09 08:52:41;;;;;;;15.40;7.70;;;0.80;99.90;;;;;;6253563;22;20179;-79
2022/02/09 08:55:08;;;;;;;13.03;7.30;;;1.10;99.90;;;;;;6281075;22;20194;-78
2022/02/09 08:57:35;;;;;;;22.47;8.83;;;1.00;99.90;;;;;;6279045;22;20155;-80
2022/02/09 09:00:08;;;;;;;12.40;7.87;;;1.00;99.90;;;;;;6279096;22;20664;-79
2022/02/09 09:02:35;;;;;;;10.13;7.03;;;1.10;99.90;;;;;;6278507;22;20149;-79
2022/02/09 09:05:17;;;;;;;18.83;7.80;;;1.20;99.90;;;;;;6251155;22;20153;-79
2022/02/09 09:07:48;;;;;;;19.23;7.53;;;1.30;99.90;;;;;;6278429;22;20165;-79
2022/02/09 09:10:20;;;;;;;19.90;8.73;;;1.40;99.90;;;;;;6280537;22;20171;-79
2022/02/09 10:05:01;;;;;;;15.37;7.83;;;3.40;99.90;;;;;;6235268;23;20149;-79
2022/02/09 10:31:03;;;;;;;9.10;4.93;;;3.80;99.90;;;;;;6246760;23;20213;-79
2022/02/09 10:33:55;;;;;;;6.83;4.87;;;5.30;99.90;;;;;;6249890;23;20155;-80
2022/02/09 10:36:21;;;;;;;8.43;5.23;;;5.30;99.90;;;;;;6250055;23;20623;-80
2022/02/09 10:38:49;;;;;;;5.93;4.93;;;5.50;99.90;;;;;;6223041;22;20196;-81
2022/02/09 10:41:20;;;;;;;6.30;4.60;;;;;;;;;;6250260;23;20183;-80
2022/02/09 10:43:47;;;;;;;8.87;5.10;;;;;;;;;;6250281;23;20131;-80
2022/02/09 10:46:19;;;;;;;8.80;4.80;;;;;;;;;;6247117;23;20241;-80
2022/02/09 10:48:51;;;;;;;5.90;4.50;;;;;;;;;;6247438;23;20616;-80
2022/02/09 10:51:21;;;;;;;7.17;4.27;;;;;;;;;;6251436;23;20137;-80
2022/02/09 10:54:04;;;;;;;5.07;4.57;;;;;;;;;;6243694;23;20222;-81
2022/02/09 10:56:31;;;;;;;9.27;4.27;;;;;;;;;;6246308;23;20211;-80
2022/02/09 10:59:08;;;;;;;4.27;3.47;;;;;;;;;;6246412;23;20184;-80
2022/02/09 11:01:35;;;;;;;4.93;3.67;;;;;;;;;;6244160;23;20223;-80
2022/02/09 11:04:01;;;;;;;3.30;3.00;;;;;;;;;;6245628;23;20171;-80
2022/02/09 11:06:29;;;;;;;3.90;3.50;;;;;;;;;;6219702;23;20156;-80
2022/02/09 11:08:56;;;;;;;6.13;3.83;;;;;;;;;;6219696;23;20173;-80
2022/02/09 11:11:22;;;;;;;5.27;3.97;;;;;;;;;;6245734;23;20159;-80
2022/02/09 11:13:48;;;;;;;4.63;3.90;;;;;;;;;;6218955;23;20153;-80
2022/02/09 11:16:16;;;;;;;5.70;3.90;;;;;;;;;;6245320;23;20608;-80
2022/02/09 11:18:43;;;;;;;5.27;3.27;;;;;;;;;;6246005;23;20172;-81
2022/02/09 11:21:13;;;;;;;4.80;3.50;;;;;;;;;;6245746;23;20287;-81
2022/02/09 11:23:42;;;;;;;6.63;3.53;;;;;;;;;;6245056;23;20172;-81
2022/02/09 11:26:26;;;;;;;6.53;3.97;;;;;;;;;;6219289;23;20468;-82
2022/02/09 11:32:28;;;;;;;5.00;3.57;;;;;;;;;;6102071;23;20263;-81
2022/02/09 11:37:51;;;;;;;6.93;3.87;;;;;;;;;;6246905;23;20177;-81
2022/02/09 11:40:25;;;;;;;5.20;3.30;;;;;;;;;;6251271;22;20700;-81
2022/02/09 11:43:00;;;;;;;4.13;3.30;;;;;;;;;;6252238;22;20490;-81
2022/02/09 11:51:23;;;;;;;7.70;4.27;;;;;;;;;;6280903;22;20505;-82
2022/02/09 12:00:04;;;;;;;4.57;3.77;;;;;;;;;;6278725;22;20196;-81
2022/02/09 12:13:59;;;;;;;7.67;4.17;;;;;;;;;;6279661;22;20147;-80
2022/02/09 12:17:14;;;;;;;4.10;3.40;;;;;;;;;;6279638;22;20579;-80
2022/02/09 12:19:52;;;;;;;4.93;3.50;;;;;;;;;;6279314;22;20264;-80
2022/02/09 12:22:19;;;;;;;5.63;4.03;;;;;;;;;;6279310;22;20200;-80
2022/02/09 12:24:45;;;;;;;5.60;3.43;;;;;;;;;;6279331;22;20146;-80
2022/02/09 12:27:12;;;;;;;11.57;7.77;;;;;;;;;;6280193;22;20149;-80
2022/02/09 12:29:42;;;;;;;4.67;3.87;;;;;;;;;;6280025;22;20170;-81
2022/02/09 12:32:14;;;;;;;5.10;3.47;;;;;;;;;;6252001;22;20160;-81
2022/02/09 12:34:43;;;;;;;4.80;3.67;;;;;;;;;;6279863;22;20173;-81
2022/02/09 12:37:16;;;;;;;5.57;3.60;;;;;;;;;;6252241;22;20187;-81
2022/02/09 12:39:48;;;;;;;5.43;3.93;;;;;;;;;;6264947;22;20189;-80
2022/02/09 12:42:14;;;;;;;5.03;3.40;;;;;;;;;;6249712;23;20145;-81
2022/02/09 12:44:40;;;;;;;5.07;3.70;;;;;;;;;;6220264;23;20249;-80
2022/02/09 12:47:07;;;;;;;3.90;3.27;;;;;;;;;;6247813;23;20165;-81
2022/02/09 12:49:33;;;;;;;4.70;3.60;;;;;;;;;;6220690;23;20496;-81
2022/02/09 12:51:59;;;;;;;3.73;3.30;;;;;;;;;;6247881;23;20163;-81
2022/02/09 12:54:25;;;;;;;4.57;3.40;;;;;;;;;;6244777;23;20141;-80
2022/02/09 12:56:53;;;;;;;3.60;3.23;;;;;;;;;;6246941;23;20169;-81
2022/02/09 12:59:20;;;;;;;7.23;4.13;;;;;;;;;;6248723;23;20171;-81
2022/02/09 13:01:51;;;;;;;5.00;4.27;;;;;;;;;;6249230;23;20185;-81
2022/02/09 13:04:31;;;;;;;11.57;3.93;;;;;;;;;;6222073;23;20491;-81
2022/02/09 13:06:57;;;;;;;4.67;3.87;;;;;;;;;;6222027;23;20175;-81
2022/02/09 13:09:24;;;;;;;4.33;3.93;;;;;;;;;;6248330;23;20251;-81
2022/02/09 13:11:50;;;;;;;5.23;4.30;;;;;;;;;;6248962;23;20169;-81
2022/02/09 13:14:28;;;;;;;4.80;3.70;;;;;;;;;;6247103;23;20188;-81
2022/02/09 14:07:04;;;;;;;4.73;4.10;;;;;;;;;;6237126;23;20634;-81
2022/02/09 14:17:36;;;;;;;4.27;3.77;;;;;;;;;;6248343;23;20179;-81
2022/02/09 14:55:17;;;;;;;6.07;5.17;;;;;;;;;;6247228;23;20158;-78
2022/02/09 14:57:53;;;;;;;8.53;5.30;;;;;;;;;;6246795;23;20546;-79
2022/02/09 15:00:23;;;;;;;7.50;4.90;;;;;;;;;;6247164;23;20531;-78
2022/02/09 15:03:01;;;;;;;6.07;4.43;;;;;;;;;;6219763;23;20161;-78
2022/02/09 15:06:07;;;;;;;5.37;4.13;;;;;;;;;;6247369;23;20135;-78
2022/02/09 15:08:35;;;;;;;6.87;4.43;;;;;;;;;;6248270;23;20159;-80
2022/02/09 15:13:38;;;;;;;5.30;4.70;;;;;;;;;;6247611;23;20157;-79
2022/02/09 15:16:22;;;;;;;6.23;4.50;;;;;;;;;;6220057;23;20142;-79
2022/02/09 15:24:03;;;;;;;6.73;4.77;;;;;;;;;;6248504;23;20149;-80
2022/02/09 15:26:29;;;;;;;5.97;4.70;;;;;;;;;;6221271;23;20186;-80
2022/02/09 15:28:57;;;;;;;5.77;4.70;;;;;;;;;;6248587;23;20167;-79
2022/02/09 15:31:33;;;;;;;5.70;4.50;;;;;;;;;;6223654;23;20482;-79
2022/02/09 15:34:13;;;;;;;7.83;4.80;;;;;;;;;;6221984;23;20237;-80
2022/02/09 15:36:52;;;;;;;10.70;5.73;;;;;;;;;;6252923;23;20165;-81
2022/02/09 15:39:19;;;;;;;5.77;4.87;;;;;;;;;;6251335;22;20196;-82
2022/02/09 15:42:04;;;;;;;7.73;5.17;;;;;;;;;;6251531;23;20142;-82
2022/02/09 15:58:57;;;;;;;45.37;8.07;;;;;;;;;;6249609;23;20178;-79
2022/02/09 16:09:36;;;;;;;13.07;5.93;;;;;;;;;;6258920;23;20201;-79
2022/02/09 16:22:36;;;;;;;7.53;5.00;;;;;;;;;;6227550;23;20144;-79
2022/02/09 16:33:45;;;;;;;8.10;5.80;;;;;;;;;;6253435;23;20190;-82
2022/02/09 16:36:57;;;;;;;7.17;6.17;;;;;;;;;;6253465;23;20161;-81
2022/02/09 16:44:18;;;;;;;13.00;6.83;;;;;;;;;;6252951;22;20193;-82
2022/02/09 16:44:44;;;;;;;12.17;6.07;;;;;;;;;;6252342;23;20180;-81
2022/02/09 16:50:06;;;;;;;11.87;6.17;;;;;;;;;;6257241;23;20205;-81
2022/02/09 16:52:47;;;;;;;8.97;5.83;;;;;;;;;;6253225;23;20201;-81
2022/02/09 17:19:03;;;;;;;8.93;6.13;;;;;;;;;;6252195;23;20177;-81
2022/02/09 17:21:30;;;;;;;13.77;7.83;;;;;;;;;;6251682;23;20163;-82
2022/02/09 17:23:57;;;;;;;11.70;7.27;;;;;;;;;;6224966;23;20232;-81
2022/02/09 17:26:24;;;;;;;13.37;6.97;;;;;;;;;;6224205;23;20155;-82
2022/02/09 17:28:57;;;;;;;15.23;9.00;;;;;;;;;;6251920;23;20184;-82
2022/02/09 17:31:35;;;;;;;12.23;6.17;;;;;;;;;;6224021;23;20228;-81
2022/02/09 17:57:51;;;;;;;9.57;6.27;;;4.70;99.90;;;;;;6248059;23;20260;-81
2022/02/09 18:00:17;;;;;;;9.63;6.33;;;4.80;99.90;;;;;;6248434;23;20172;-81
2022/02/09 18:02:51;;;;;;;10.10;6.30;;;4.60;99.90;;;;;;6247813;23;20148;-81
2022/02/09 18:05:46;;;;;;;11.77;7.07;;;4.60;99.90;;;;;;6247652;23;20136;-81
2022/02/09 18:08:10;;;;;;;12.60;8.70;;;4.50;99.90;;;;;;6247063;23;20498;-81
2022/02/09 18:29:49;;;;;;;7.47;5.83;;;4.00;99.90;;;;;;6251076;23;20183;-81
2022/02/09 19:03:54;;;;;;;10.43;6.63;;;3.30;99.90;;;;;;6290045;22;20476;-81
2022/02/09 19:17:52;;;;;;;8.57;6.30;;;3.30;99.90;;;;;;6249680;23;20142;-78
2022/02/09 19:31:25;;;;;;;13.03;8.83;;;3.10;99.90;;;;;;6184377;22;20248;-81
2022/02/09 19:43:59;;;;;;;16.10;8.40;;;3.00;99.90;;;;;;6250018;23;20147;-80
2022/02/09 19:53:09;;;;;;;12.93;8.63;;;2.90;99.90;;;;;;6255902;23;20218;-78
2022/02/09 19:55:37;;;;;;;10.77;9.33;;;2.90;99.90;;;;;;6253601;22;20143;-81
2022/02/09 19:58:04;;;;;;;13.40;9.90;;;2.90;99.90;;;;;;6251348;22;20158;-79
2022/02/09 20:00:33;;;;;;;12.90;10.03;;;2.90;99.90;;;;;;6249102;23;20195;-80
2022/02/09 20:02:59;;;;;;;15.40;10.13;;;2.90;99.90;;;;;;6250566;22;20152;-80
2022/02/09 20:05:26;;;;;;;14.30;9.90;;;2.90;99.90;;;;;;6249485;23;20524;-80
2022/02/09 20:07:53;;;;;;;10.73;8.80;;;2.80;99.90;;;;;;6250174;22;20198;-79
2022/02/09 20:10:19;;;;;;;14.70;9.23;;;2.80;99.90;;;;;;6249383;22;20243;-78
2022/02/09 20:12:44;;;;;;;9.70;8.70;;;2.80;99.90;;;;;;6247856;23;20497;-78
2022/02/09 20:15:12;;;;;;;12.17;9.10;;;2.70;99.90;;;;;;6249680;23;20143;-79
2022/02/09 20:17:44;;;;;;;11.00;8.47;;;2.70;99.90;;;;;;6248063;23;20158;-79
2022/02/09 20:20:15;;;;;;;11.40;8.67;;;2.80;99.90;;;;;;6250246;22;20195;-79
2022/02/09 20:22:42;;;;;;;10.23;8.67;;;2.70;99.90;;;;;;6249281;22;20134;-81
2022/02/09 20:25:09;;;;;;;12.30;8.37;;;2.60;99.90;;;;;;6250255;22;20180;-79
2022/02/09 20:27:37;;;;;;;12.73;8.57;;;2.60;99.90;;;;;;6249865;22;20170;-78
2022/02/09 20:30:06;;;;;;;14.43;9.33;;;2.80;99.90;;;;;;6249727;22;20166;-80
2022/02/09 20:32:37;;;;;;;12.03;9.10;;;2.60;99.90;;;;;;6251442;22;20588;-80
2022/02/09 20:35:07;;;;;;;12.07;9.20;;;2.60;99.90;;;;;;6249159;22;20135;-79
2022/02/09 20:37:36;;;;;;;12.03;9.03;;;2.50;99.90;;;;;;6249344;22;20151;-80
2022/02/09 20:40:10;;;;;;;12.43;8.67;;;2.50;99.90;;;;;;6247704;23;20511;-79
2022/02/09 20:42:38;;;;;;;12.47;8.77;;;2.50;99.90;;;;;;6249244;22;20187;-77
2022/02/09 20:45:30;;;;;;;11.80;8.83;;;2.40;99.90;;;;;;6248406;23;20201;-79
2022/02/09 20:47:57;;;;;;;11.70;8.47;;;2.40;99.90;;;;;;6248942;23;20201;-79
2022/02/09 20:50:24;;;;;;;11.60;9.47;;;2.40;99.90;;;;;;6249849;22;20245;-80
2022/02/09 20:52:49;;;;;;;13.00;9.40;;;2.30;99.90;;;;;;6250140;22;20146;-79
2022/02/09 20:55:15;;;;;;;16.47;10.17;;;2.30;99.90;;;;;;6250366;23;20614;-80
2022/02/09 20:57:41;;;;;;;13.07;9.47;;;2.30;99.90;;;;;;6252745;23;20222;-80
2022/02/09 21:00:12;;;;;;;11.20;8.03;;;2.20;99.90;;;;;;6250536;22;20182;-80
2022/02/09 21:05:40;;;;;;;16.07;9.33;;;2.00;99.90;;;;;;6212658;22;20245;-81
2022/02/09 21:09:00;;;;;;;13.70;9.27;;;1.80;99.90;;;;;;6246631;23;20173;-80
2022/02/09 21:18:37;;;;;;;26.70;12.47;;;1.50;99.90;;;;;;6248450;23;20236;-80
2022/02/09 21:26:52;;;;;;;16.30;8.93;;;1.30;99.90;;;;;;6258872;23;20137;-80
2022/02/09 21:46:06;;;;;;;9.37;7.87;;;0.90;99.90;;;;;;6244455;23;20148;-81
2022/02/09 21:56:58;;;;;;;13.10;7.73;;;1.00;99.90;;;;;;6222011;22;20154;-80
2022/02/09 22:29:06;;;;;;;12.70;8.80;;;0.90;99.90;;;;;;6258315;23;20197;-80
2022/02/09 22:55:23;;;;;;;12.63;8.67;;;1.00;99.90;;;;;;6247663;22;20153;-79
2022/02/09 22:58:03;;;;;;;10.13;7.93;;;0.60;99.90;;;;;;6247675;22;20224;-80
2022/02/09 23:03:31;;;;;;;10.27;8.07;;;0.50;99.90;;;;;;6258043;22;20137;-79
